Portada
METAR-TAF:

METAR-TAF

Aeroports :

Aeroport Internacional de Düsseldorf

Düsseldorf, Alemanya

latitud: 51-18N, longitud: 006-46E, altitud: 45 m

Observació

L'informe es va fer fa 42 minuts, a les 06:20 UTC
Vent 1 kt del Est/Sud-Est
Temperatura -3°C
Humitat 80%
Pressió 1032 hPa
Visibilitat 10 km o més
sense núvols per sota de 1500 mi sense presència de cumulonimbus.

METAR: EDDL 300620Z 12001KT CAVOK M03/M06 Q1032 NOSIG

Hora: 09:02 (07:02 UTC)

Pronòstic

L'informe es va fer fa 2 hores i 2 minuts, a les 05:00 UTC
Pronòstic vàlid del 30 a les 06 UTC al 31 a les 12 UTC
Vent 4 kt del Nord/Nord-Oest
Visibilitat 10 km o més
Núvols disperses a una alçada de 3000 ft
Evolucionant progressivament
l' 30 a les 21 UTC al 30 a les 24 UTC
Vent 6 kt del Nord/Nord-Est

TAF: EDDL 300500Z 3006/3112 33004KT 9999 SCT030 BECMG 3021/3024 03006KT

Observacions i pronòstics meteorològics de més de 4000 aeroports (METAR i TAF).

Les estacions disponibles són els punts grocs i vermells al mapa.

Posi el ratolí al punt desitjat per veure el nom de l'estació.

Feu clic per veure les observacions i els pronòstics meteorològics.

Per canviar el mapa: feu clic els botons verds amb una creu de color negre per apropar; al botó verd amb un guió per allunyar la imatge; o en les fletxes verdes per a mapes adjacents.


METAR-TAF: